Time;durP1;ratioP1;P1;durP2;ratioP2;P2;SDS_P1;SDS_P2;PMS_P1;PMS_P2;Temp;Humidity;BMP_temperature;BMP_pressure;BME280_temperature;BME280_humidity;BME280_pressure;Samples;Min_cycle;Max_cycle;Signal;HPM_P1;HPM_P2
2023/10/30 00:00:48;;;;;;;4.67;1.33;;;;;;;;;;5030352;28;20231;-64
2023/10/30 00:03:17;;;;;;;3.60;0.90;;;;;;;;;;5029689;28;20254;-64
2023/10/30 00:05:46;;;;;;;2.33;1.10;;;;;;;;;;5036183;28;20199;-64
2023/10/30 00:08:16;;;;;;;4.20;1.03;;;;;;;;;;5033118;28;20566;-64
2023/10/30 00:10:44;;;;;;;4.47;1.20;;;;;;;;;;5020667;28;20204;-64
2023/10/30 00:13:14;;;;;;;3.03;1.30;;;;;;;;;;5025397;28;20219;-64
2023/10/30 00:15:42;;;;;;;2.53;1.30;;;;;;;;;;5020732;28;20208;-64
2023/10/30 00:18:10;;;;;;;7.17;1.20;;;;;;;;;;5020550;28;20215;-64
2023/10/30 00:20:38;;;;;;;2.63;1.03;;;;;;;;;;5020431;28;20232;-64
2023/10/30 00:23:06;;;;;;;2.00;0.90;;;;;;;;;;5025691;28;20204;-64
2023/10/30 00:25:34;;;;;;;3.07;1.57;;;;;;;;;;5034948;28;20563;-64
2023/10/30 00:28:03;;;;;;;4.63;1.27;;;;;;;;;;5031341;28;20212;-64
2023/10/30 00:30:32;;;;;;;4.13;1.10;;;;;;;;;;5039191;28;20562;-64
2023/10/30 00:33:00;;;;;;;6.33;1.37;;;;;;;;;;5028228;28;20258;-64
2023/10/30 00:35:28;;;;;;;5.90;1.20;;;;;;;;;;5020048;28;20231;-64
2023/10/30 00:37:57;;;;;;;8.63;1.33;;;;;;;;;;5036901;28;20227;-64
2023/10/30 00:40:26;;;;;;;4.50;1.00;;;;;;;;;;5021921;28;20287;-64
2023/10/30 00:42:54;;;;;;;4.40;1.47;;;;;;;;;;5039067;28;20204;-64
2023/10/30 00:45:22;;;;;;;2.80;1.00;;;;;;;;;;5030500;28;20196;-64
2023/10/30 00:47:52;;;;;;;3.00;1.20;;;;;;;;;;5028129;28;20659;-64
2023/10/30 00:50:20;;;;;;;3.33;1.00;;;;;;;;;;5039484;28;20671;-64
2023/10/30 00:52:48;;;;;;;8.43;1.63;;;;;;;;;;5038494;28;20602;-64
2023/10/30 00:55:16;;;;;;;4.47;1.30;;;;;;;;;;5038738;28;20219;-64
2023/10/30 00:57:45;;;;;;;4.50;1.20;;;;;;;;;;5035199;28;20224;-64
2023/10/30 01:00:13;;;;;;;2.23;1.00;;;;;;;;;;5027996;28;20207;-64
2023/10/30 01:02:42;;;;;;;3.40;1.03;;;;;;;;;;5034028;28;20254;-64
2023/10/30 01:05:11;;;;;;;6.43;1.20;;;;;;;;;;5035061;28;20231;-64
2023/10/30 01:07:40;;;;;;;5.93;1.17;;;;;;;;;;5037827;28;20209;-64
2023/10/30 01:10:09;;;;;;;3.23;1.07;;;;;;;;;;5022213;28;20213;-64
2023/10/30 01:12:37;;;;;;;3.63;1.10;;;;;;;;;;5034706;28;20195;-64
2023/10/30 01:15:06;;;;;;;4.33;1.30;;;;;;;;;;5037743;28;20285;-64
2023/10/30 01:17:34;;;;;;;2.77;1.00;;;;;;;;;;5038325;28;20213;-64
2023/10/30 01:20:03;;;;;;;5.53;1.30;;;;;;;;;;5039230;28;20207;-64
2023/10/30 01:22:33;;;;;;;5.87;1.10;;;;;;;;;;5038192;28;20587;-64
2023/10/30 01:25:01;;;;;;;3.67;1.43;;;;;;;;;;5039001;28;20239;-64
2023/10/30 01:27:29;;;;;;;7.00;1.53;;;;;;;;;;5038566;28;20203;-64
2023/10/30 01:29:57;;;;;;;4.47;0.90;;;;;;;;;;5035930;28;20204;-64
2023/10/30 01:32:25;;;;;;;7.07;1.57;;;;;;;;;;5038073;28;20203;-64
2023/10/30 01:34:53;;;;;;;6.10;1.00;;;;;;;;;;5038250;28;20231;-64
2023/10/30 01:37:21;;;;;;;2.93;1.77;;;;;;;;;;5037862;28;20607;-64
2023/10/30 01:39:51;;;;;;;4.77;1.37;;;;;;;;;;5020439;28;20208;-64
2023/10/30 01:42:19;;;;;;;3.97;1.40;;;;;;;;;;5037542;28;20227;-64
2023/10/30 01:44:54;;;;;;;3.43;1.00;;;;;;;;;;5038830;28;20322;-64
2023/10/30 01:47:23;;;;;;;5.10;1.13;;;;;;;;;;5034788;28;20249;-65
2023/10/30 01:49:51;;;;;;;5.47;1.17;;;;;;;;;;5032463;28;20207;-64
2023/10/30 01:52:19;;;;;;;4.83;1.40;;;;;;;;;;5037818;28;20212;-64
2023/10/30 01:54:48;;;;;;;4.80;1.23;;;;;;;;;;5038382;28;20780;-64
2023/10/30 01:57:19;;;;;;;6.77;1.67;;;;;;;;;;5037710;28;20299;-64
2023/10/30 01:59:47;;;;;;;6.30;1.30;;;;;;;;;;5030570;28;20618;-64
2023/10/30 02:02:15;;;;;;;3.80;1.20;;;;;;;;;;5036210;28;20223;-64
2023/10/30 02:04:43;;;;;;;4.60;1.30;;;;;;;;;;5023541;28;20222;-64
2023/10/30 02:07:12;;;;;;;5.27;1.30;;;;;;;;;;5022661;28;20211;-64
2023/10/30 02:09:40;;;;;;;3.97;1.03;;;;;;;;;;5018638;28;20204;-64
2023/10/30 02:12:09;;;;;;;3.63;1.13;;;;;;;;;;5018206;28;20668;-64
2023/10/30 02:14:39;;;;;;;2.73;1.00;;;;;;;;;;5018231;28;20254;-64
2023/10/30 02:17:07;;;;;;;3.07;0.80;;;;;;;;;;5018406;28;20241;-64
2023/10/30 02:19:35;;;;;;;2.33;1.10;;;;;;;;;;5018514;28;20223;-64
2023/10/30 02:22:03;;;;;;;3.43;0.97;;;;;;;;;;5022958;28;20227;-64
2023/10/30 02:24:31;;;;;;;4.07;1.10;;;;;;;;;;5022881;28;20687;-64
2023/10/30 02:27:01;;;;;;;3.40;1.30;;;;;;;;;;5024273;28;20199;-64
2023/10/30 02:29:29;;;;;;;5.27;1.27;;;;;;;;;;5034806;28;20614;-65
2023/10/30 02:31:57;;;;;;;2.70;0.90;;;;;;;;;;5034992;28;20204;-64
2023/10/30 02:34:25;;;;;;;6.23;1.43;;;;;;;;;;5017611;28;20227;-64
2023/10/30 02:36:56;;;;;;;3.53;1.30;;;;;;;;;;5026030;28;20208;-64
2023/10/30 02:39:24;;;;;;;4.63;1.50;;;;;;;;;;5031513;28;20204;-64
2023/10/30 02:41:52;;;;;;;2.50;1.40;;;;;;;;;;5032811;28;20302;-64
2023/10/30 02:44:21;;;;;;;3.10;0.93;;;;;;;;;;5037529;28;20710;-64
2023/10/30 02:46:49;;;;;;;3.10;0.93;;;;;;;;;;5037122;28;20548;-64
2023/10/30 02:49:18;;;;;;;2.80;1.03;;;;;;;;;;5036842;28;20207;-64
2023/10/30 02:51:46;;;;;;;4.70;0.97;;;;;;;;;;5020131;28;20204;-64
2023/10/30 02:54:14;;;;;;;5.73;1.50;;;;;;;;;;5037729;28;20228;-64
2023/10/30 02:56:42;;;;;;;2.70;0.97;;;;;;;;;;5037005;28;20208;-64
2023/10/30 02:59:10;;;;;;;5.17;1.07;;;;;;;;;;5035635;28;20233;-64
2023/10/30 03:01:41;;;;;;;5.47;1.67;;;;;;;;;;5029031;28;20235;-64
2023/10/30 03:04:09;;;;;;;5.57;1.57;;;;;;;;;;5035144;28;20233;-64
2023/10/30 03:06:37;;;;;;;4.80;1.33;;;;;;;;;;5036983;28;20204;-64
2023/10/30 03:09:05;;;;;;;3.07;1.57;;;;;;;;;;5025994;28;20652;-64
2023/10/30 03:11:33;;;;;;;3.43;1.20;;;;;;;;;;5040491;28;20199;-64
2023/10/30 03:14:02;;;;;;;4.30;1.20;;;;;;;;;;5041656;28;20239;-64
2023/10/30 03:16:30;;;;;;;4.83;1.23;;;;;;;;;;5040618;28;20697;-64
2023/10/30 03:18:59;;;;;;;5.40;1.23;;;;;;;;;;5040277;28;20203;-64
2023/10/30 03:21:27;;;;;;;3.97;1.57;;;;;;;;;;5031588;28;20206;-64
2023/10/30 03:23:55;;;;;;;2.10;0.97;;;;;;;;;;5041120;28;20231;-64
2023/10/30 03:26:25;;;;;;;3.53;1.23;;;;;;;;;;5027412;28;20572;-64
2023/10/30 03:28:53;;;;;;;4.13;1.03;;;;;;;;;;5036998;28;20274;-64
2023/10/30 03:31:21;;;;;;;4.27;1.40;;;;;;;;;;5040712;28;20203;-64
2023/10/30 03:33:49;;;;;;;4.63;1.30;;;;;;;;;;5038998;28;20294;-64
2023/10/30 03:36:20;;;;;;;4.80;1.27;;;;;;;;;;5040170;28;20207;-64
2023/10/30 03:38:48;;;;;;;5.17;1.70;;;;;;;;;;5031448;28;20206;-64
2023/10/30 03:41:16;;;;;;;4.03;1.20;;;;;;;;;;5031233;28;20204;-64
2023/10/30 03:43:45;;;;;;;2.87;1.10;;;;;;;;;;5040146;28;20231;-64
2023/10/30 03:46:13;;;;;;;3.10;1.03;;;;;;;;;;5040376;28;20203;-64
2023/10/30 03:48:41;;;;;;;6.83;1.40;;;;;;;;;;5039849;28;20214;-64
2023/10/30 03:51:09;;;;;;;4.37;1.17;;;;;;;;;;5040318;28;20204;-64
2023/10/30 03:53:38;;;;;;;3.50;1.20;;;;;;;;;;5031547;28;20251;-64
2023/10/30 03:56:07;;;;;;;6.50;1.00;;;;;;;;;;5040249;28;20204;-64
2023/10/30 03:58:35;;;;;;;6.03;1.33;;;;;;;;;;5040484;28;20235;-64
2023/10/30 04:01:07;;;;;;;4.50;1.40;;;;;;;;;;5039764;28;20203;-64
2023/10/30 04:03:36;;;;;;;2.10;1.30;;;;;;;;;;5029557;28;20294;-64
2023/10/30 04:06:04;;;;;;;1.80;1.20;;;;;;;;;;5023818;28;20203;-63
2023/10/30 04:08:32;;;;;;;4.83;1.10;;;;;;;;;;5021381;28;20201;-64
2023/10/30 04:11:08;;;;;;;7.93;1.37;;;;;;;;;;5020537;28;20219;-64
2023/10/30 04:13:36;;;;;;;3.40;1.70;;;;;;;;;;5020361;28;20223;-63
2023/10/30 04:16:05;;;;;;;5.33;1.50;;;;;;;;;;5020554;28;20208;-63
2023/10/30 04:18:33;;;;;;;5.00;1.50;;;;;;;;;;5020470;28;20212;-63
2023/10/30 04:21:01;;;;;;;4.07;1.10;;;;;;;;;;5024577;28;20251;-63
2023/10/30 04:23:29;;;;;;;2.97;1.13;;;;;;;;;;5020133;28;20594;-63
2023/10/30 04:25:57;;;;;;;3.03;1.10;;;;;;;;;;5020586;28;20212;-63
2023/10/30 04:28:27;;;;;;;3.63;1.20;;;;;;;;;;5035902;28;20210;-63
2023/10/30 04:30:55;;;;;;;4.90;1.30;;;;;;;;;;5039130;28;20212;-63
2023/10/30 04:33:23;;;;;;;3.30;1.30;;;;;;;;;;5031780;28;20219;-63
2023/10/30 04:35:53;;;;;;;5.97;1.50;;;;;;;;;;5029066;28;20273;-63
2023/10/30 04:38:22;;;;;;;6.33;2.70;;;;;;;;;;5039165;28;20199;-63
2023/10/30 04:40:50;;;;;;;4.87;1.20;;;;;;;;;;5033963;28;20207;-63
2023/10/30 04:43:18;;;;;;;6.77;1.50;;;;;;;;;;5039952;28;20236;-63
2023/10/30 04:45:48;;;;;;;6.20;1.30;;;;;;;;;;5038918;28;20208;-63
2023/10/30 04:48:16;;;;;;;5.20;1.93;;;;;;;;;;5038853;28;20204;-63
2023/10/30 04:50:46;;;;;;;4.17;1.23;;;;;;;;;;5033484;28;20236;-63
2023/10/30 04:53:16;;;;;;;1.20;1.00;;;;;;;;;;5030340;28;20247;-63
2023/10/30 04:55:45;;;;;;;3.13;1.47;;;;;;;;;;5021558;28;20208;-64
2023/10/30 04:58:13;;;;;;;3.97;1.57;;;;;;;;;;5031204;28;20228;-64
2023/10/30 05:00:42;;;;;;;3.67;1.20;;;;;;;;;;5029786;28;20717;-63
2023/10/30 05:03:13;;;;;;;4.07;1.33;;;;;;;;;;5028056;28;20216;-63
2023/10/30 05:05:42;;;;;;;4.03;1.13;;;;;;;;;;5028149;28;20234;-63
2023/10/30 05:08:10;;;;;;;2.87;1.00;;;;;;;;;;5029858;28;20204;-63
2023/10/30 05:10:39;;;;;;;2.90;1.27;;;;;;;;;;5028155;28;20664;-63
2023/10/30 05:13:07;;;;;;;4.20;1.10;;;;;;;;;;5029108;28;20539;-63
2023/10/30 05:15:36;;;;;;;5.90;1.50;;;;;;;;;;5025942;28;20195;-63
2023/10/30 05:18:04;;;;;;;3.60;1.23;;;;;;;;;;5028811;28;20200;-63
2023/10/30 05:20:34;;;;;;;4.50;1.63;;;;;;;;;;5026455;28;20208;-63
2023/10/30 05:23:02;;;;;;;1.53;1.20;;;;;;;;;;5027097;28;20238;-63
2023/10/30 05:25:30;;;;;;;4.20;1.30;;;;;;;;;;5027615;28;20211;-63
2023/10/30 05:28:11;;;;;;;4.13;1.40;;;;;;;;;;5028215;28;20235;-63
2023/10/30 05:30:40;;;;;;;4.77;1.50;;;;;;;;;;5032264;28;20204;-63
2023/10/30 05:33:08;;;;;;;2.37;1.20;;;;;;;;;;5032356;28;20569;-63
2023/10/30 05:35:38;;;;;;;5.37;1.30;;;;;;;;;;5038776;28;20239;-63
2023/10/30 05:38:06;;;;;;;2.53;1.30;;;;;;;;;;5028825;28;20682;-63
2023/10/30 05:40:34;;;;;;;5.33;1.17;;;;;;;;;;5033579;28;20216;-63
2023/10/30 05:43:02;;;;;;;4.80;1.30;;;;;;;;;;5018695;28;20695;-63
2023/10/30 05:45:30;;;;;;;3.50;1.10;;;;;;;;;;5019440;28;20212;-64
2023/10/30 05:47:58;;;;;;;1.73;1.07;;;;;;;;;;5030084;28;20238;-63
2023/10/30 05:50:27;;;;;;;6.60;2.30;;;;;;;;;;5030480;28;20663;-63
2023/10/30 05:52:56;;;;;;;4.13;1.50;;;;;;;;;;5038484;28;20553;-63
2023/10/30 05:55:25;;;;;;;3.33;1.50;;;;;;;;;;5038524;28;20214;-63
2023/10/30 05:57:53;;;;;;;3.63;1.37;;;;;;;;;;5038284;28;20250;-63
2023/10/30 06:00:22;;;;;;;5.30;1.23;;;;;;;;;;5038680;28;20309;-63
2023/10/30 06:02:51;;;;;;;3.97;1.50;;;;;;;;;;5035241;28;20204;-63
2023/10/30 06:05:19;;;;;;;2.87;1.13;;;;;;;;;;5028138;28;20251;-65
2023/10/30 06:07:47;;;;;;;4.47;1.30;;;;;;;;;;5035731;28;20218;-65
2023/10/30 06:10:19;;;;;;;2.83;1.20;;;;;;;;;;5038407;28;20238;-64
2023/10/30 06:12:47;;;;;;;3.93;1.10;;;;;;;;;;5038298;28;20207;-64
2023/10/30 06:15:16;;;;;;;3.50;1.47;;;;;;;;;;5023386;28;20238;-63
2023/10/30 06:17:44;;;;;;;6.23;1.30;;;;;;;;;;5034106;28;20651;-63
2023/10/30 06:20:12;;;;;;;2.30;1.27;;;;;;;;;;5038040;28;20254;-63
2023/10/30 06:22:41;;;;;;;4.60;1.50;;;;;;;;;;5037955;28;20647;-63
2023/10/30 06:25:09;;;;;;;2.17;1.40;;;;;;;;;;5037972;28;20239;-63
2023/10/30 06:27:41;;;;;;;2.07;1.37;;;;;;;;;;5033425;28;20208;-63
2023/10/30 06:30:12;;;;;;;3.60;1.43;;;;;;;;;;5026638;28;20200;-63
2023/10/30 06:32:49;;;;;;;6.77;1.47;;;;;;;;;;5021517;28;20574;-65
2023/10/30 06:35:17;;;;;;;6.47;1.47;;;;;;;;;;5024315;28;20266;-64
2023/10/30 06:37:45;;;;;;;5.13;1.20;;;;;;;;;;5034490;28;20542;-64
2023/10/30 06:40:14;;;;;;;8.63;2.43;;;;;;;;;;5035415;28;20301;-64
2023/10/30 06:42:44;;;;;;;5.20;2.13;;;;;;;;;;5033664;28;20208;-66
2023/10/30 06:45:12;;;;;;;5.80;1.73;;;;;;;;;;5036006;28;20235;-65
2023/10/30 06:47:55;;;;;;;5.17;1.93;;;;;;;;;;5024439;28;20206;-66
2023/10/30 06:50:25;;;;;;;5.30;1.50;;;;;;;;;;5026025;28;22168;-65
2023/10/30 06:52:54;;;;;;;3.47;1.30;;;;;;;;;;5027297;28;20219;-67
2023/10/30 06:55:22;;;;;;;3.80;1.67;;;;;;;;;;5027893;28;20206;-65
2023/10/30 06:57:52;;;;;;;3.00;1.20;;;;;;;;;;5036692;28;20668;-68
2023/10/30 07:00:23;;;;;;;4.23;1.60;;;;;;;;;;5036868;28;20282;-65
2023/10/30 07:02:51;;;;;;;5.77;1.73;;;;;;;;;;5031484;28;20206;-66
2023/10/30 07:05:20;;;;;;;6.03;1.40;;;;;;;;;;5025793;28;20579;-66
2023/10/30 07:07:48;;;;;;;4.23;1.10;;;;;;;;;;5023699;28;20214;-65
2023/10/30 07:10:19;;;;;;;6.53;1.93;;;;;;;;;;5016512;28;20211;-67
2023/10/30 07:12:47;;;;;;;4.63;1.50;;;;;;;;;;5036014;28;20219;-65
2023/10/30 07:15:17;;;;;;;4.30;1.40;;;;;;;;;;5030518;28;20311;-64
2023/10/30 07:17:45;;;;;;;4.33;1.40;;;;;;;;;;5017216;28;20668;-65
2023/10/30 07:20:13;;;;;;;6.00;1.33;;;;;;;;;;5017404;28;20243;-66
2023/10/30 07:22:41;;;;;;;3.53;1.37;;;;;;;;;;5017449;28;20212;-64
2023/10/30 07:25:09;;;;;;;3.53;1.00;;;;;;;;;;5017613;28;20231;-62
2023/10/30 07:27:37;;;;;;;3.90;1.60;;;;;;;;;;5018792;28;20208;-62
2023/10/30 07:30:08;;;;;;;2.93;1.27;;;;;;;;;;5018769;28;20291;-62
2023/10/30 07:32:37;;;;;;;4.53;1.50;;;;;;;;;;5017380;28;20218;-63
2023/10/30 07:35:07;;;;;;;6.07;1.67;;;;;;;;;;5024200;28;20772;-63
2023/10/30 07:37:35;;;;;;;4.60;1.10;;;;;;;;;;5037268;28;20211;-63
2023/10/30 07:40:05;;;;;;;5.00;1.20;;;;;;;;;;5036202;28;20219;-62
2023/10/30 07:42:33;;;;;;;1.47;1.10;;;;;;;;;;5017071;28;20667;-63
2023/10/30 07:45:01;;;;;;;4.27;1.30;;;;;;;;;;5021707;28;20242;-63
2023/10/30 07:47:29;;;;;;;3.10;1.17;;;;;;;;;;5022291;28;20212;-62
2023/10/30 07:50:11;;;;;;;1.33;1.13;;;;;;;;;;5030422;28;20207;-63
2023/10/30 07:52:40;;;;;;;5.67;1.50;;;;;;;;;;5018233;28;20215;-63
2023/10/30 07:55:12;;;;;;;4.00;1.50;;;;;;;;;;5017815;28;20253;-63
2023/10/30 07:57:42;;;;;;;7.77;1.23;;;;;;;;;;5033066;28;20224;-62
2023/10/30 08:00:11;;;;;;;2.90;1.50;;;;;;;;;;5019399;28;20204;-62
2023/10/30 08:02:40;;;;;;;4.53;1.50;;;;;;;;;;5026742;28;20231;-62
2023/10/30 08:05:08;;;;;;;4.67;1.17;;;;;;;;;;5032769;28;20249;-63
2023/10/30 08:07:38;;;;;;;2.60;1.10;;;;;;;;;;5024562;28;20569;-63
2023/10/30 08:10:06;;;;;;;2.87;1.77;;;;;;;;;;5021053;28;20208;-63
2023/10/30 08:12:34;;;;;;;3.17;1.30;;;;;;;;;;5020766;28;20215;-62
2023/10/30 08:15:03;;;;;;;6.23;1.30;;;;;;;;;;5020820;28;20283;-63
2023/10/30 08:17:31;;;;;;;3.90;1.37;;;;;;;;;;5020632;28;20211;-63
2023/10/30 08:19:59;;;;;;;3.57;1.30;;;;;;;;;;5021905;28;20266;-63
2023/10/30 08:22:27;;;;;;;3.63;2.00;;;;;;;;;;5020375;28;20215;-62
2023/10/30 08:24:56;;;;;;;3.73;1.40;;;;;;;;;;5020560;28;20756;-63
2023/10/30 08:27:25;;;;;;;2.50;1.10;;;;;;;;;;5020641;28;20216;-62
2023/10/30 08:29:53;;;;;;;1.90;1.13;;;;;;;;;;5020358;28;20267;-63
2023/10/30 08:32:21;;;;;;;9.23;1.80;;;;;;;;;;5020095;28;20204;-62
2023/10/30 08:34:49;;;;;;;4.43;1.30;;;;;;;;;;5020489;28;20236;-63
2023/10/30 08:37:20;;;;;;;4.40;1.30;;;;;;;;;;5028385;28;20223;-63
2023/10/30 08:39:48;;;;;;;5.93;2.20;;;;;;;;;;5020429;28;20211;-63
2023/10/30 08:42:18;;;;;;;3.10;1.50;;;;;;;;;;5031568;28;20786;-62
2023/10/30 08:44:47;;;;;;;5.17;1.80;;;;;;;;;;5019815;28;20232;-63
2023/10/30 08:47:15;;;;;;;7.17;1.70;;;;;;;;;;5020044;28;20259;-62
2023/10/30 08:49:46;;;;;;;4.23;1.70;;;;;;;;;;5019869;28;20685;-63
2023/10/30 08:52:15;;;;;;;4.23;1.40;;;;;;;;;;5026746;28;20195;-62
2023/10/30 08:54:43;;;;;;;2.43;1.27;;;;;;;;;;5022660;28;20315;-62
2023/10/30 08:57:12;;;;;;;3.37;1.60;;;;;;;;;;5019920;28;20244;-62
2023/10/30 08:59:46;;;;;;;11.33;1.87;;;;;;;;;;5019796;28;20212;-62
2023/10/30 09:02:14;;;;;;;5.77;1.50;;;;;;;;;;5020537;28;20212;-63
2023/10/30 09:04:42;;;;;;;2.53;1.53;;;;;;;;;;5028486;28;20232;-62
2023/10/30 09:07:11;;;;;;;3.03;1.33;;;;;;;;;;5026540;28;20306;-62
2023/10/30 09:09:39;;;;;;;3.80;1.67;;;;;;;;;;5039383;28;20219;-63
2023/10/30 09:12:08;;;;;;;3.13;1.20;;;;;;;;;;5030717;28;20196;-62
2023/10/30 09:14:36;;;;;;;4.77;1.70;;;;;;;;;;5019241;28;20290;-63
2023/10/30 09:17:08;;;;;;;4.87;1.53;;;;;;;;;;5019363;28;20204;-62
2023/10/30 09:19:36;;;;;;;6.00;1.40;;;;;;;;;;5019636;28;20240;-63
2023/10/30 09:22:05;;;;;;;5.57;1.63;;;;;;;;;;5019138;28;20213;-62
2023/10/30 09:24:33;;;;;;;3.53;1.53;;;;;;;;;;5019178;28;20723;-63
2023/10/30 09:27:01;;;;;;;2.97;1.20;;;;;;;;;;5021361;28;20234;-62
2023/10/30 09:29:29;;;;;;;3.10;1.10;;;;;;;;;;5019162;28;20204;-62
2023/10/30 09:31:59;;;;;;;2.50;1.33;;;;;;;;;;5018954;28;20212;-62
2023/10/30 09:34:29;;;;;;;3.57;1.63;;;;;;;;;;5019522;28;20230;-62
2023/10/30 09:36:58;;;;;;;5.23;1.27;;;;;;;;;;5019180;28;20263;-63
2023/10/30 09:39:26;;;;;;;5.17;1.33;;;;;;;;;;5019022;28;20227;-63
2023/10/30 09:41:59;;;;;;;6.00;1.53;;;;;;;;;;5030149;28;20216;-62
2023/10/30 09:44:28;;;;;;;2.83;1.50;;;;;;;;;;5026929;28;20230;-63
2023/10/30 09:46:57;;;;;;;1.83;1.30;;;;;;;;;;5031767;28;20232;-62
2023/10/30 09:49:25;;;;;;;3.23;1.13;;;;;;;;;;5019067;28;20288;-62
2023/10/30 09:51:55;;;;;;;4.90;1.43;;;;;;;;;;5018933;28;20212;-62
2023/10/30 09:54:24;;;;;;;4.00;1.27;;;;;;;;;;5018661;28;20614;-62
2023/10/30 09:56:52;;;;;;;6.23;1.30;;;;;;;;;;5018465;28;20254;-62
2023/10/30 09:59:21;;;;;;;3.03;1.53;;;;;;;;;;5018776;28;20213;-62
2023/10/30 10:01:49;;;;;;;3.03;1.03;;;;;;;;;;5020147;28;20710;-62
2023/10/30 10:04:18;;;;;;;3.33;1.40;;;;;;;;;;5019763;28;20246;-62
2023/10/30 10:06:46;;;;;;;6.33;1.40;;;;;;;;;;5031861;28;20291;-62
2023/10/30 10:09:16;;;;;;;2.23;1.23;;;;;;;;;;5038528;28;20213;-63
2023/10/30 10:11:45;;;;;;;2.33;1.23;;;;;;;;;;5038300;28;20224;-62
2023/10/30 10:14:15;;;;;;;3.87;1.57;;;;;;;;;;5037891;28;20590;-62
2023/10/30 10:16:43;;;;;;;3.67;1.07;;;;;;;;;;5038359;28;20639;-62
2023/10/30 10:19:19;;;;;;;1.77;1.30;;;;;;;;;;5037420;28;20312;-62
2023/10/30 10:21:48;;;;;;;3.57;1.27;;;;;;;;;;5038222;28;20292;-62
2023/10/30 10:24:29;;;;;;;4.47;1.40;;;;;;;;;;5038237;28;20227;-63
2023/10/30 10:27:03;;;;;;;2.87;1.23;;;;;;;;;;5037894;28;20236;-62
2023/10/30 10:29:32;;;;;;;3.97;1.50;;;;;;;;;;5038022;28;20296;-62
2023/10/30 10:32:00;;;;;;;6.17;1.33;;;;;;;;;;5037861;28;20235;-62
2023/10/30 10:34:30;;;;;;;4.07;1.63;;;;;;;;;;5037984;28;20259;-62
2023/10/30 10:36:59;;;;;;;5.67;1.80;;;;;;;;;;5037292;28;20255;-62
2023/10/30 10:39:29;;;;;;;10.47;2.60;;;;;;;;;;5037929;28;20212;-62
2023/10/30 10:41:58;;;;;;;4.90;2.07;;;;;;;;;;5021409;28;20215;-63
2023/10/30 10:44:27;;;;;;;6.57;1.60;;;;;;;;;;5017954;28;20237;-62
2023/10/30 10:46:59;;;;;;;5.33;1.80;;;;;;;;;;5017675;28;20275;-62
2023/10/30 10:49:27;;;;;;;5.43;1.47;;;;;;;;;;5018018;28;20574;-62
2023/10/30 10:51:56;;;;;;;6.47;1.40;;;;;;;;;;5021299;28;20254;-63
2023/10/30 10:54:24;;;;;;;4.53;1.70;;;;;;;;;;5023715;28;20252;-63
2023/10/30 10:56:54;;;;;;;6.03;1.80;;;;;;;;;;5017383;28;20226;-63
2023/10/30 10:59:26;;;;;;;3.13;1.67;;;;;;;;;;5016563;28;20238;-63
2023/10/30 11:01:56;;;;;;;5.90;1.80;;;;;;;;;;5017658;28;20633;-62
2023/10/30 11:04:24;;;;;;;3.10;1.50;;;;;;;;;;5020275;28;20747;-62
2023/10/30 11:06:56;;;;;;;3.07;1.70;;;;;;;;;;5031810;28;20231;-63
2023/10/30 11:09:26;;;;;;;1.93;1.40;;;;;;;;;;5037464;28;20229;-63
2023/10/30 11:12:00;;;;;;;3.07;1.47;;;;;;;;;;5037632;28;20281;-63
2023/10/30 11:14:32;;;;;;;6.00;2.27;;;;;;;;;;5036298;28;20687;-63
2023/10/30 11:17:02;;;;;;;6.87;1.90;;;;;;;;;;5035901;28;20206;-63
2023/10/30 11:19:32;;;;;;;5.93;1.70;;;;;;;;;;5036538;28;20195;-63
2023/10/30 11:22:00;;;;;;;3.97;1.43;;;;;;;;;;5034729;28;20213;-63
2023/10/30 11:24:38;;;;;;;7.53;1.60;;;;;;;;;;5035789;28;20229;-63
2023/10/30 11:27:25;;;;;;;4.00;1.70;;;;;;;;;;5032802;28;20224;-64
2023/10/30 11:29:55;;;;;;;4.37;1.50;;;;;;;;;;5031469;28;20206;-64
2023/10/30 11:32:25;;;;;;;3.53;1.33;;;;;;;;;;5033394;28;20204;-65
2023/10/30 11:34:56;;;;;;;6.77;1.70;;;;;;;;;;5033131;28;20235;-64
2023/10/30 11:37:43;;;;;;;2.93;1.47;;;;;;;;;;5039457;28;20306;-64
2023/10/30 11:40:15;;;;;;;2.90;1.60;;;;;;;;;;5033778;28;20258;-64
2023/10/30 11:42:44;;;;;;;4.70;1.70;;;;;;;;;;5026639;28;20339;-64
2023/10/30 11:45:20;;;;;;;3.67;2.10;;;;;;;;;;5030467;28;20224;-64
2023/10/30 11:47:50;;;;;;;4.03;2.10;;;;;;;;;;5020512;28;20319;-64
2023/10/30 11:50:19;;;;;;;3.57;1.80;;;;;;;;;;5020843;28;20204;-63
2023/10/30 11:52:48;;;;;;;4.63;1.90;;;;;;;;;;5031079;28;20210;-64
2023/10/30 11:55:18;;;;;;;3.60;2.10;;;;;;;;;;5027883;28;20235;-65
2023/10/30 11:57:49;;;;;;;4.07;1.63;;;;;;;;;;5027425;28;20266;-64
2023/10/30 12:00:19;;;;;;;7.10;2.23;;;;;;;;;;5040182;28;20212;-64
2023/10/30 12:02:47;;;;;;;5.37;2.03;;;;;;;;;;5035121;28;20196;-64
2023/10/30 12:05:15;;;;;;;3.33;1.50;;;;;;;;;;5028635;28;20653;-64
2023/10/30 12:07:44;;;;;;;4.10;2.00;;;;;;;;;;5020249;28;20259;-64
2023/10/30 12:10:12;;;;;;;6.17;2.17;;;;;;;;;;5034743;28;20203;-64
2023/10/30 12:12:42;;;;;;;5.03;1.40;;;;;;;;;;5038925;28;20211;-64
2023/10/30 12:15:11;;;;;;;8.97;2.40;;;;;;;;;;5020413;28;20260;-64
2023/10/30 12:17:41;;;;;;;6.17;2.33;;;;;;;;;;5029730;28;20273;-63
2023/10/30 12:20:10;;;;;;;3.23;1.60;;;;;;;;;;5022606;28;20235;-64
2023/10/30 12:22:41;;;;;;;5.87;1.70;;;;;;;;;;5020045;28;20212;-63
2023/10/30 12:25:19;;;;;;;2.00;1.20;;;;;;;;;;5028039;28;20226;-64
2023/10/30 12:27:48;;;;;;;4.90;1.63;;;;;;;;;;5026160;28;20323;-64
2023/10/30 12:30:17;;;;;;;4.43;1.23;;;;;;;;;;5029713;28;20215;-63
2023/10/30 12:32:57;;;;;;;2.47;1.47;;;;;;;;;;5029554;28;20215;-63
2023/10/30 12:35:25;;;;;;;2.60;1.50;;;;;;;;;;5035555;28;20202;-64
2023/10/30 12:37:54;;;;;;;2.97;1.20;;;;;;;;;;5040074;28;20204;-64
2023/10/30 12:40:22;;;;;;;2.30;1.13;;;;;;;;;;5036420;28;20200;-65
2023/10/30 12:42:50;;;;;;;3.00;1.20;;;;;;;;;;5019425;28;20694;-65
2023/10/30 12:45:19;;;;;;;1.63;0.90;;;;;;;;;;5019781;28;20255;-65
2023/10/30 12:47:48;;;;;;;3.37;1.20;;;;;;;;;;5019606;28;20239;-64
2023/10/30 12:50:18;;;;;;;3.90;1.67;;;;;;;;;;5019932;28;20262;-65
2023/10/30 12:52:46;;;;;;;1.67;1.37;;;;;;;;;;5037932;28;20637;-65
2023/10/30 12:55:14;;;;;;;2.93;1.13;;;;;;;;;;5039866;28;20330;-65
2023/10/30 12:57:42;;;;;;;4.63;1.60;;;;;;;;;;5039473;28;20239;-65
2023/10/30 13:00:11;;;;;;;2.43;1.50;;;;;;;;;;5039606;28;20274;-65
2023/10/30 13:02:40;;;;;;;1.30;1.20;;;;;;;;;;5035268;28;20284;-65
2023/10/30 13:05:09;;;;;;;2.40;1.00;;;;;;;;;;5027918;28;20631;-65
2023/10/30 13:07:41;;;;;;;3.07;1.10;;;;;;;;;;5020975;28;20232;-65
2023/10/30 13:10:10;;;;;;;1.43;1.03;;;;;;;;;;5024034;28;20642;-64
2023/10/30 13:12:38;;;;;;;3.97;1.00;;;;;;;;;;5026211;28;20685;-64
2023/10/30 13:15:06;;;;;;;2.30;1.00;;;;;;;;;;5039329;28;20258;-65
2023/10/30 13:17:35;;;;;;;2.07;0.97;;;;;;;;;;5039026;28;20208;-65
2023/10/30 13:20:05;;;;;;;1.27;1.00;;;;;;;;;;5039082;28;20207;-65
2023/10/30 13:22:35;;;;;;;1.20;1.07;;;;;;;;;;5039040;28;20206;-66
2023/10/30 13:25:05;;;;;;;3.10;0.80;;;;;;;;;;5038568;28;20224;-66
2023/10/30 13:27:33;;;;;;;1.63;0.97;;;;;;;;;;5028038;28;20267;-66
2023/10/30 13:30:03;;;;;;;3.50;1.50;;;;;;;;;;5025959;28;20262;-66
2023/10/30 13:32:32;;;;;;;7.03;1.73;;;;;;;;;;5019202;28;20208;-66
2023/10/30 13:35:00;;;;;;;3.20;1.60;;;;;;;;;;5027513;28;20227;-66
2023/10/30 13:37:28;;;;;;;5.17;1.83;;;;;;;;;;5035097;28;20204;-65
2023/10/30 13:39:57;;;;;;;1.63;1.27;;;;;;;;;;5023492;28;20199;-66
2023/10/30 13:42:26;;;;;;;4.00;1.67;;;;;;;;;;5033357;28;20203;-66
2023/10/30 13:44:54;;;;;;;4.07;1.47;;;;;;;;;;5022016;28;20642;-66
2023/10/30 13:47:23;;;;;;;3.97;1.40;;;;;;;;;;5025513;28;20205;-64
2023/10/30 13:49:51;;;;;;;1.67;1.03;;;;;;;;;;5019106;28;20208;-66
2023/10/30 13:52:19;;;;;;;3.33;1.90;;;;;;;;;;5018682;28;20715;-66
2023/10/30 13:54:50;;;;;;;1.53;1.43;;;;;;;;;;5018038;28;20235;-66
2023/10/30 13:57:19;;;;;;;3.47;1.57;;;;;;;;;;5018580;28;20633;-66
2023/10/30 13:59:48;;;;;;;3.03;1.70;;;;;;;;;;5037091;28;20214;-66
2023/10/30 14:02:17;;;;;;;2.27;1.50;;;;;;;;;;5037273;28;20250;-65
2023/10/30 14:04:45;;;;;;;2.67;1.50;;;;;;;;;;5024366;28;20306;-64
2023/10/30 14:07:20;;;;;;;1.77;1.10;;;;;;;;;;5022824;28;20220;-64
2023/10/30 14:09:48;;;;;;;1.10;1.00;;;;;;;;;;5018568;28;20208;-64
2023/10/30 14:12:18;;;;;;;3.27;1.40;;;;;;;;;;5018439;28;20219;-65
2023/10/30 14:14:48;;;;;;;2.70;1.23;;;;;;;;;;5018559;28;20235;-65
2023/10/30 14:17:16;;;;;;;2.63;1.30;;;;;;;;;;5027821;28;20212;-65
2023/10/30 14:19:44;;;;;;;1.20;1.10;;;;;;;;;;5018610;28;20201;-67
2023/10/30 14:22:12;;;;;;;1.67;1.00;;;;;;;;;;5018378;28;20240;-67
2023/10/30 14:24:40;;;;;;;1.63;1.23;;;;;;;;;;5018209;28;20224;-67
2023/10/30 14:27:08;;;;;;;1.93;1.23;;;;;;;;;;5018415;28;20211;-67
2023/10/30 14:29:37;;;;;;;3.67;1.30;;;;;;;;;;5018097;28;20699;-67
2023/10/30 14:32:07;;;;;;;2.40;1.20;;;;;;;;;;5022102;28;20234;-67
2023/10/30 14:34:36;;;;;;;2.67;1.30;;;;;;;;;;5026578;28;20224;-67
2023/10/30 14:37:05;;;;;;;4.10;1.80;;;;;;;;;;5037372;28;20625;-67
2023/10/30 14:39:33;;;;;;;3.70;1.60;;;;;;;;;;5036940;28;20234;-68
2023/10/30 14:42:01;;;;;;;3.23;1.57;;;;;;;;;;5025263;28;20688;-68
2023/10/30 14:44:30;;;;;;;2.43;1.40;;;;;;;;;;5017526;28;20216;-68
2023/10/30 14:46:58;;;;;;;2.47;1.20;;;;;;;;;;5021548;28;20222;-68
2023/10/30 14:49:28;;;;;;;4.53;1.30;;;;;;;;;;5037675;28;20229;-68
2023/10/30 14:51:56;;;;;;;1.53;1.43;;;;;;;;;;5034275;28;20210;-68
2023/10/30 14:54:24;;;;;;;4.17;1.40;;;;;;;;;;5037242;28;20223;-68